sensor_id;sensor_type;location;lat;lon;timestamp;pressure;altitude;pressure_sealevel;temperature;humidity
17772;BME280;9010;32.624;-96.938;2022-08-03T00:00:01;98659.31;;;37.06;38.20
17772;BME280;9010;32.624;-96.938;2022-08-03T00:02:32;98666.69;;;37.05;38.80
17772;BME280;9010;32.624;-96.938;2022-08-03T00:05:00;98665.63;;;37.06;38.53
17772;BME280;9010;32.624;-96.938;2022-08-03T00:07:29;98668.25;;;36.96;39.14
17772;BME280;9010;32.624;-96.938;2022-08-03T00:09:57;98661.22;;;37.05;38.59
17772;BME280;9010;32.624;-96.938;2022-08-03T00:12:26;98666.03;;;36.93;38.29
17772;BME280;9010;32.624;-96.938;2022-08-03T00:14:54;98669.28;;;36.85;38.35
17772;BME280;9010;32.624;-96.938;2022-08-03T00:17:22;98661.88;;;36.85;38.51
17772;BME280;9010;32.624;-96.938;2022-08-03T00:19:52;98654.69;;;36.74;38.74
17772;BME280;9010;32.624;-96.938;2022-08-03T00:22:20;98657.97;;;36.76;38.75
17772;BME280;9010;32.624;-96.938;2022-08-03T00:24:48;98667.03;;;36.77;37.97
17772;BME280;9010;32.624;-96.938;2022-08-03T00:27:17;98667.47;;;36.64;38.84
17772;BME280;9010;32.624;-96.938;2022-08-03T00:29:45;98655.41;;;36.65;38.44
17772;BME280;9010;32.624;-96.938;2022-08-03T00:32:13;98668.03;;;36.66;38.39
17772;BME280;9010;32.624;-96.938;2022-08-03T00:34:41;98671.34;;;36.68;38.39
17772;BME280;9010;32.624;-96.938;2022-08-03T00:37:11;98669.91;;;36.60;39.06
17772;BME280;9010;32.624;-96.938;2022-08-03T00:39:39;98663.28;;;36.56;39.12
17772;BME280;9010;32.624;-96.938;2022-08-03T00:42:08;98668.53;;;36.58;38.76
17772;BME280;9010;32.624;-96.938;2022-08-03T00:44:39;98665.09;;;36.46;38.72
17772;BME280;9010;32.624;-96.938;2022-08-03T00:47:08;98665.94;;;36.46;39.08
17772;BME280;9010;32.624;-96.938;2022-08-03T00:49:37;98667.53;;;36.42;39.06
17772;BME280;9010;32.624;-96.938;2022-08-03T00:52:05;98663.72;;;36.43;39.11
17772;BME280;9010;32.624;-96.938;2022-08-03T00:54:39;98654.63;;;36.38;38.65
17772;BME280;9010;32.624;-96.938;2022-08-03T00:57:07;98661.13;;;36.31;39.34
17772;BME280;9010;32.624;-96.938;2022-08-03T00:59:35;98661.06;;;36.21;39.75
17772;BME280;9010;32.624;-96.938;2022-08-03T01:02:05;98665.94;;;36.19;39.56
17772;BME280;9010;32.624;-96.938;2022-08-03T01:04:33;98662.94;;;36.16;39.79
17772;BME280;9010;32.624;-96.938;2022-08-03T01:07:07;98672.94;;;36.05;40.18
17772;BME280;9010;32.624;-96.938;2022-08-03T01:09:55;98664.59;;;35.95;40.13
17772;BME280;9010;32.624;-96.938;2022-08-03T01:12:33;98673.88;;;35.94;40.23
17772;BME280;9010;32.624;-96.938;2022-08-03T01:15:08;98677.25;;;36.01;40.00
17772;BME280;9010;32.624;-96.938;2022-08-03T01:17:45;98678.28;;;35.95;39.76
17772;BME280;9010;32.624;-96.938;2022-08-03T01:20:19;98678.78;;;35.92;40.40
17772;BME280;9010;32.624;-96.938;2022-08-03T01:23:02;98675.72;;;35.89;40.88
17772;BME280;9010;32.624;-96.938;2022-08-03T01:25:43;98677.53;;;35.78;40.91
17772;BME280;9010;32.624;-96.938;2022-08-03T01:28:38;98664.22;;;35.65;40.60
17772;BME280;9010;32.624;-96.938;2022-08-03T01:31:11;98676.78;;;35.61;41.42
17772;BME280;9010;32.624;-96.938;2022-08-03T01:33:43;98677.00;;;35.59;41.52
17772;BME280;9010;32.624;-96.938;2022-08-03T01:36:18;98678.28;;;35.52;41.60
17772;BME280;9010;32.624;-96.938;2022-08-03T01:38:52;98683.13;;;35.45;42.09
17772;BME280;9010;32.624;-96.938;2022-08-03T01:41:23;98682.53;;;35.43;41.91
17772;BME280;9010;32.624;-96.938;2022-08-03T01:43:53;98686.91;;;35.44;42.42
17772;BME280;9010;32.624;-96.938;2022-08-03T01:46:25;98691.31;;;35.45;41.00
17772;BME280;9010;32.624;-96.938;2022-08-03T01:48:56;98689.72;;;35.49;41.00
17772;BME280;9010;32.624;-96.938;2022-08-03T01:51:26;98686.84;;;35.39;41.96
17772;BME280;9010;32.624;-96.938;2022-08-03T01:53:56;98685.97;;;35.33;41.63
17772;BME280;9010;32.624;-96.938;2022-08-03T01:56:26;98688.88;;;35.27;42.23
17772;BME280;9010;32.624;-96.938;2022-08-03T01:58:56;98685.25;;;35.21;43.35
17772;BME280;9010;32.624;-96.938;2022-08-03T02:01:29;98681.06;;;35.13;42.67
17772;BME280;9010;32.624;-96.938;2022-08-03T02:03:59;98685.91;;;35.11;43.30
17772;BME280;9010;32.624;-96.938;2022-08-03T02:06:31;98687.97;;;35.04;43.81
17772;BME280;9010;32.624;-96.938;2022-08-03T02:09:01;98683.59;;;35.03;43.24
17772;BME280;9010;32.624;-96.938;2022-08-03T02:11:30;98684.66;;;35.02;43.40
17772;BME280;9010;32.624;-96.938;2022-08-03T02:14:04;98685.09;;;34.94;43.32
17772;BME280;9010;32.624;-96.938;2022-08-03T02:16:35;98687.19;;;34.87;44.19
17772;BME280;9010;32.624;-96.938;2022-08-03T02:19:05;98687.84;;;34.78;44.26
17772;BME280;9010;32.624;-96.938;2022-08-03T02:21:36;98682.78;;;34.70;45.29
17772;BME280;9010;32.624;-96.938;2022-08-03T02:24:05;98689.03;;;34.65;45.32
17772;BME280;9010;32.624;-96.938;2022-08-03T02:26:36;98683.44;;;34.60;45.38
17772;BME280;9010;32.624;-96.938;2022-08-03T02:29:10;98686.19;;;34.60;44.20
17772;BME280;9010;32.624;-96.938;2022-08-03T02:31:42;98686.19;;;34.60;44.90
17772;BME280;9010;32.624;-96.938;2022-08-03T02:34:13;98688.81;;;34.55;44.98
17772;BME280;9010;32.624;-96.938;2022-08-03T02:36:45;98690.97;;;34.53;44.83
17772;BME280;9010;32.624;-96.938;2022-08-03T02:39:19;98700.22;;;34.52;44.63
17772;BME280;9010;32.624;-96.938;2022-08-03T02:41:51;98693.13;;;34.51;44.75
17772;BME280;9010;32.624;-96.938;2022-08-03T02:44:22;98693.84;;;34.46;44.67
17772;BME280;9010;32.624;-96.938;2022-08-03T02:46:57;98703.84;;;34.41;45.08
17772;BME280;9010;32.624;-96.938;2022-08-03T02:49:28;98700.53;;;34.39;44.90
17772;BME280;9010;32.624;-96.938;2022-08-03T02:51:58;98703.41;;;34.32;45.40
17772;BME280;9010;32.624;-96.938;2022-08-03T02:54:28;98701.19;;;34.29;45.62
17772;BME280;9010;32.624;-96.938;2022-08-03T02:56:58;98707.88;;;34.22;46.12
17772;BME280;9010;32.624;-96.938;2022-08-03T02:59:28;98707.19;;;34.15;46.58
17772;BME280;9010;32.624;-96.938;2022-08-03T03:02:01;98710.53;;;34.17;46.35
17772;BME280;9010;32.624;-96.938;2022-08-03T03:04:30;98711.84;;;34.14;46.41
17772;BME280;9010;32.624;-96.938;2022-08-03T03:06:59;98717.63;;;34.18;46.31
17772;BME280;9010;32.624;-96.938;2022-08-03T03:09:28;98716.69;;;34.12;45.91
17772;BME280;9010;32.624;-96.938;2022-08-03T03:11:57;98709.22;;;34.07;46.68
17772;BME280;9010;32.624;-96.938;2022-08-03T03:14:26;98714.47;;;33.97;46.75
17772;BME280;9010;32.624;-96.938;2022-08-03T03:16:55;98721.09;;;34.01;46.28
17772;BME280;9010;32.624;-96.938;2022-08-03T03:19:25;98718.84;;;33.98;46.49
17772;BME280;9010;32.624;-96.938;2022-08-03T03:21:54;98712.00;;;33.96;46.39
17772;BME280;9010;32.624;-96.938;2022-08-03T03:24:23;98710.81;;;33.92;47.05
17772;BME280;9010;32.624;-96.938;2022-08-03T03:26:52;98711.56;;;33.87;47.67
17772;BME280;9010;32.624;-96.938;2022-08-03T03:29:21;98716.63;;;33.95;46.48
17772;BME280;9010;32.624;-96.938;2022-08-03T03:31:49;98715.94;;;33.88;46.85
17772;BME280;9010;32.624;-96.938;2022-08-03T03:34:18;98720.56;;;33.88;47.16
17772;BME280;9010;32.624;-96.938;2022-08-03T03:36:48;98718.91;;;33.87;46.78
17772;BME280;9010;32.624;-96.938;2022-08-03T03:39:16;98713.59;;;33.80;47.91
17772;BME280;9010;32.624;-96.938;2022-08-03T03:41:45;98718.22;;;33.80;47.16
17772;BME280;9010;32.624;-96.938;2022-08-03T03:44:13;98718.44;;;33.78;47.18
17772;BME280;9010;32.624;-96.938;2022-08-03T03:46:42;98716.69;;;33.72;47.82
17772;BME280;9010;32.624;-96.938;2022-08-03T03:49:11;98709.59;;;33.71;47.41
17772;BME280;9010;32.624;-96.938;2022-08-03T03:51:39;98706.50;;;33.68;47.47
17772;BME280;9010;32.624;-96.938;2022-08-03T03:54:09;98704.41;;;33.58;48.43
17772;BME280;9010;32.624;-96.938;2022-08-03T03:56:37;98705.22;;;33.59;48.45
17772;BME280;9010;32.624;-96.938;2022-08-03T03:59:06;98706.50;;;33.56;48.53
17772;BME280;9010;32.624;-96.938;2022-08-03T04:01:34;98707.94;;;33.47;48.81
17772;BME280;9010;32.624;-96.938;2022-08-03T04:04:02;98705.22;;;33.47;49.01
17772;BME280;9010;32.624;-96.938;2022-08-03T04:06:44;98701.78;;;33.51;48.57
17772;BME280;9010;32.624;-96.938;2022-08-03T04:09:31;98707.25;;;33.40;50.14
17772;BME280;9010;32.624;-96.938;2022-08-03T04:12:18;98701.34;;;33.43;49.19
17772;BME280;9010;32.624;-96.938;2022-08-03T04:14:50;98703.44;;;33.41;50.24
17772;BME280;9010;32.624;-96.938;2022-08-03T04:17:23;98698.94;;;33.35;49.54
17772;BME280;9010;32.624;-96.938;2022-08-03T04:19:55;98703.81;;;33.33;50.00
17772;BME280;9010;32.624;-96.938;2022-08-03T04:22:25;98709.53;;;33.31;50.33
17772;BME280;9010;32.624;-96.938;2022-08-03T04:24:59;98702.03;;;33.27;50.45
17772;BME280;9010;32.624;-96.938;2022-08-03T04:27:32;98694.00;;;33.32;50.34
17772;BME280;9010;32.624;-96.938;2022-08-03T04:30:03;98699.31;;;33.27;50.24
17772;BME280;9010;32.624;-96.938;2022-08-03T04:32:33;98705.38;;;33.29;50.36
17772;BME280;9010;32.624;-96.938;2022-08-03T04:35:03;98695.53;;;33.28;50.23
17772;BME280;9010;32.624;-96.938;2022-08-03T04:37:37;98698.75;;;33.25;50.58
17772;BME280;9010;32.624;-96.938;2022-08-03T04:40:10;98691.16;;;33.27;50.49
17772;BME280;9010;32.624;-96.938;2022-08-03T04:42:41;98699.09;;;33.28;50.09
17772;BME280;9010;32.624;-96.938;2022-08-03T04:45:12;98692.81;;;33.28;50.16
17772;BME280;9010;32.624;-96.938;2022-08-03T04:47:40;98687.84;;;33.25;50.21
17772;BME280;9010;32.624;-96.938;2022-08-03T04:50:09;98689.63;;;33.19;50.98
17772;BME280;9010;32.624;-96.938;2022-08-03T04:52:38;98688.91;;;33.12;50.89
17772;BME280;9010;32.624;-96.938;2022-08-03T04:55:09;98686.91;;;33.08;50.91
17772;BME280;9010;32.624;-96.938;2022-08-03T04:57:37;98686.19;;;33.01;51.98
17772;BME280;9010;32.624;-96.938;2022-08-03T05:00:06;98683.56;;;32.94;51.83
17772;BME280;9010;32.624;-96.938;2022-08-03T05:02:34;98683.47;;;32.89;52.81
17772;BME280;9010;32.624;-96.938;2022-08-03T05:05:03;98685.25;;;32.83;52.97
17772;BME280;9010;32.624;-96.938;2022-08-03T05:07:31;98676.44;;;32.81;52.53
17772;BME280;9010;32.624;-96.938;2022-08-03T05:09:59;98683.69;;;32.87;52.14
17772;BME280;9010;32.624;-96.938;2022-08-03T05:12:30;98690.78;;;32.88;51.75
17772;BME280;9010;32.624;-96.938;2022-08-03T05:14:58;98688.44;;;32.80;52.97
17772;BME280;9010;32.624;-96.938;2022-08-03T05:17:27;98683.34;;;32.72;52.52
17772;BME280;9010;32.624;-96.938;2022-08-03T05:19:55;98690.06;;;32.81;52.71
17772;BME280;9010;32.624;-96.938;2022-08-03T05:22:23;98689.13;;;32.76;52.87
17772;BME280;9010;32.624;-96.938;2022-08-03T05:24:52;98691.25;;;32.74;53.08
17772;BME280;9010;32.624;-96.938;2022-08-03T05:27:20;98700.00;;;32.64;54.79
17772;BME280;9010;32.624;-96.938;2022-08-03T05:29:50;98701.53;;;32.60;53.22
17772;BME280;9010;32.624;-96.938;2022-08-03T05:32:18;98700.19;;;32.51;55.21
17772;BME280;9010;32.624;-96.938;2022-08-03T05:34:47;98708.81;;;32.48;53.93
17772;BME280;9010;32.624;-96.938;2022-08-03T05:37:15;98704.31;;;32.42;53.92
17772;BME280;9010;32.624;-96.938;2022-08-03T05:39:43;98704.44;;;32.35;55.05
17772;BME280;9010;32.624;-96.938;2022-08-03T05:42:14;98708.78;;;32.36;54.82
17772;BME280;9010;32.624;-96.938;2022-08-03T05:44:42;98705.25;;;32.36;55.35
17772;BME280;9010;32.624;-96.938;2022-08-03T05:47:12;98702.50;;;32.36;55.41
17772;BME280;9010;32.624;-96.938;2022-08-03T05:49:40;98701.22;;;32.27;55.86
17772;BME280;9010;32.624;-96.938;2022-08-03T05:52:09;98706.16;;;32.30;56.32
17772;BME280;9010;32.624;-96.938;2022-08-03T05:54:37;98706.28;;;32.23;56.99
17772;BME280;9010;32.624;-96.938;2022-08-03T05:57:05;98707.78;;;32.19;56.98
17772;BME280;9010;32.624;-96.938;2022-08-03T05:59:33;98711.69;;;32.12;58.20
17772;BME280;9010;32.624;-96.938;2022-08-03T06:02:02;98711.22;;;32.15;57.94
17772;BME280;9010;32.624;-96.938;2022-08-03T06:04:32;98708.13;;;32.11;58.40
17772;BME280;9010;32.624;-96.938;2022-08-03T06:07:00;98712.00;;;32.04;59.50
17772;BME280;9010;32.624;-96.938;2022-08-03T06:09:28;98716.38;;;32.05;59.20
17772;BME280;9010;32.624;-96.938;2022-08-03T06:11:56;98715.31;;;32.06;59.59
17772;BME280;9010;32.624;-96.938;2022-08-03T06:14:25;98716.63;;;32.03;59.57
17772;BME280;9010;32.624;-96.938;2022-08-03T06:16:53;98717.13;;;31.94;61.24
17772;BME280;9010;32.624;-96.938;2022-08-03T06:19:21;98714.19;;;31.95;60.70
17772;BME280;9010;32.624;-96.938;2022-08-03T06:21:52;98718.78;;;31.95;61.43
17772;BME280;9010;32.624;-96.938;2022-08-03T06:24:20;98723.25;;;31.89;62.11
17772;BME280;9010;32.624;-96.938;2022-08-03T06:26:48;98722.66;;;31.87;62.49
17772;BME280;9010;32.624;-96.938;2022-08-03T06:29:17;98724.69;;;31.92;62.79
17772;BME280;9010;32.624;-96.938;2022-08-03T06:31:45;98730.44;;;31.83;64.25
17772;BME280;9010;32.624;-96.938;2022-08-03T06:34:13;98729.22;;;31.79;63.79
17772;BME280;9010;32.624;-96.938;2022-08-03T06:36:41;98720.88;;;31.81;63.91
17772;BME280;9010;32.624;-96.938;2022-08-03T06:39:11;98713.53;;;31.81;64.20
17772;BME280;9010;32.624;-96.938;2022-08-03T06:41:39;98720.16;;;31.85;67.12
17772;BME280;9010;32.624;-96.938;2022-08-03T06:44:08;98712.78;;;31.56;72.08
17772;BME280;9010;32.624;-96.938;2022-08-03T06:46:36;98705.22;;;31.40;73.13
17772;BME280;9010;32.624;-96.938;2022-08-03T06:49:04;98698.47;;;31.49;68.99
17772;BME280;9010;32.624;-96.938;2022-08-03T06:51:33;98708.88;;;31.52;68.75
17772;BME280;9010;32.624;-96.938;2022-08-03T06:54:01;98712.56;;;31.58;69.43
17772;BME280;9010;32.624;-96.938;2022-08-03T06:56:31;98715.69;;;31.61;68.14
17772;BME280;9010;32.624;-96.938;2022-08-03T06:59:00;98713.31;;;31.47;73.79
17772;BME280;9010;32.624;-96.938;2022-08-03T07:01:28;98708.53;;;31.42;70.91
17772;BME280;9010;32.624;-96.938;2022-08-03T07:03:56;98718.59;;;31.42;71.79
17772;BME280;9010;32.624;-96.938;2022-08-03T07:06:25;98714.53;;;31.51;71.18
17772;BME280;9010;32.624;-96.938;2022-08-03T07:08:53;98718.06;;;31.51;69.76
17772;BME280;9010;32.624;-96.938;2022-08-03T07:11:22;98714.16;;;31.47;73.20
17772;BME280;9010;32.624;-96.938;2022-08-03T07:13:52;98719.41;;;31.42;72.11
17772;BME280;9010;32.624;-96.938;2022-08-03T07:16:20;98719.41;;;31.42;72.34
17772;BME280;9010;32.624;-96.938;2022-08-03T07:18:48;98715.09;;;31.35;73.35
17772;BME280;9010;32.624;-96.938;2022-08-03T07:21:16;98709.53;;;31.29;73.78
17772;BME280;9010;32.624;-96.938;2022-08-03T07:23:45;98723.31;;;31.28;71.66
17772;BME280;9010;32.624;-96.938;2022-08-03T07:26:13;98711.31;;;31.17;73.82
17772;BME280;9010;32.624;-96.938;2022-08-03T07:28:41;98717.06;;;31.27;71.67
17772;BME280;9010;32.624;-96.938;2022-08-03T07:31:11;98723.31;;;31.28;72.47
17772;BME280;9010;32.624;-96.938;2022-08-03T07:33:39;98714.72;;;31.31;71.87
17772;BME280;9010;32.624;-96.938;2022-08-03T07:36:07;98720.44;;;31.23;72.85
17772;BME280;9010;32.624;-96.938;2022-08-03T07:38:36;98714.19;;;31.22;72.61
17772;BME280;9010;32.624;-96.938;2022-08-03T07:41:04;98727.56;;;31.24;72.95
17772;BME280;9010;32.624;-96.938;2022-08-03T07:43:32;98720.44;;;31.23;72.96
17772;BME280;9010;32.624;-96.938;2022-08-03T07:46:00;98724.69;;;31.19;73.54
17772;BME280;9010;32.624;-96.938;2022-08-03T07:48:30;98718.47;;;31.12;74.11
17772;BME280;9010;32.624;-96.938;2022-08-03T07:50:58;98718.91;;;31.09;75.40
17772;BME280;9010;32.624;-96.938;2022-08-03T07:53:28;98719.69;;;31.16;74.02
17772;BME280;9010;32.624;-96.938;2022-08-03T07:55:56;98717.72;;;31.05;75.32
17772;BME280;9010;32.624;-96.938;2022-08-03T07:58:24;98726.53;;;31.00;75.21
17772;BME280;9010;32.624;-96.938;2022-08-03T08:00:53;98719.66;;;30.98;75.37
17772;BME280;9010;32.624;-96.938;2022-08-03T08:03:21;98728.66;;;30.92;76.19
17772;BME280;9010;32.624;-96.938;2022-08-03T08:05:51;98729.50;;;30.92;76.37
17772;BME280;9010;32.624;-96.938;2022-08-03T08:08:20;98741.25;;;30.86;77.06
17772;BME280;9010;32.624;-96.938;2022-08-03T08:10:48;98733.94;;;30.87;77.55
17772;BME280;9010;32.624;-96.938;2022-08-03T08:13:17;98733.34;;;30.85;77.40
17772;BME280;9010;32.624;-96.938;2022-08-03T08:15:45;98739.66;;;30.79;77.36
17772;BME280;9010;32.624;-96.938;2022-08-03T08:18:13;98740.09;;;30.75;77.76
17772;BME280;9010;32.624;-96.938;2022-08-03T08:20:41;98736.78;;;30.73;77.58
17772;BME280;9010;32.624;-96.938;2022-08-03T08:23:11;98733.06;;;30.68;77.96
17772;BME280;9010;32.624;-96.938;2022-08-03T08:25:39;98734.31;;;30.65;78.40
17772;BME280;9010;32.624;-96.938;2022-08-03T08:28:08;98737.94;;;30.59;79.04
17772;BME280;9010;32.624;-96.938;2022-08-03T08:30:36;98733.09;;;30.61;78.81
17772;BME280;9010;32.624;-96.938;2022-08-03T08:33:04;98726.44;;;30.57;79.33
17772;BME280;9010;32.624;-96.938;2022-08-03T08:35:32;98729.78;;;30.59;79.44
17772;BME280;9010;32.624;-96.938;2022-08-03T08:38:01;98735.28;;;30.46;80.58
17772;BME280;9010;32.624;-96.938;2022-08-03T08:40:30;98731.56;;;30.41;80.94
17772;BME280;9010;32.624;-96.938;2022-08-03T08:42:59;98729.31;;;30.31;80.76
17772;BME280;9010;32.624;-96.938;2022-08-03T08:45:27;98725.81;;;30.24;80.32
17772;BME280;9010;32.624;-96.938;2022-08-03T08:47:56;98723.53;;;30.21;80.85
17772;BME280;9010;32.624;-96.938;2022-08-03T08:50:27;98722.50;;;30.22;79.89
17772;BME280;9010;32.624;-96.938;2022-08-03T08:53:00;98724.16;;;30.23;79.72
17772;BME280;9010;32.624;-96.938;2022-08-03T08:55:31;98723.97;;;30.18;79.00
17772;BME280;9010;32.624;-96.938;2022-08-03T08:58:02;98730.44;;;30.17;80.10
17772;BME280;9010;32.624;-96.938;2022-08-03T09:00:32;98727.94;;;30.15;78.86
17772;BME280;9010;32.624;-96.938;2022-08-03T09:03:00;98732.53;;;30.15;78.17
17772;BME280;9010;32.624;-96.938;2022-08-03T09:05:29;98719.47;;;30.05;79.70
17772;BME280;9010;32.624;-96.938;2022-08-03T09:07:58;98729.47;;;30.05;79.00
17772;BME280;9010;32.624;-96.938;2022-08-03T09:10:26;98720.53;;;29.98;79.51
17772;BME280;9010;32.624;-96.938;2022-08-03T09:12:56;98724.75;;;29.94;79.74
17772;BME280;9010;32.624;-96.938;2022-08-03T09:15:26;98726.22;;;29.90;79.71
17772;BME280;9010;32.624;-96.938;2022-08-03T09:17:57;98726.03;;;29.85;80.49
17772;BME280;9010;32.624;-96.938;2022-08-03T09:20:28;98725.44;;;29.83;80.75
17772;BME280;9010;32.624;-96.938;2022-08-03T09:22:58;98721.66;;;29.77;80.44
17772;BME280;9010;32.624;-96.938;2022-08-03T09:25:30;98724.81;;;29.74;79.92
17772;BME280;9010;32.624;-96.938;2022-08-03T09:28:08;98722.72;;;29.70;80.09
17772;BME280;9010;32.624;-96.938;2022-08-03T09:30:38;98721.50;;;29.66;80.97
17772;BME280;9010;32.624;-96.938;2022-08-03T09:33:08;98719.00;;;29.57;80.96
17772;BME280;9010;32.624;-96.938;2022-08-03T09:35:40;98718.22;;;29.50;80.79
17772;BME280;9010;32.624;-96.938;2022-08-03T09:38:11;98729.47;;;29.47;80.90
17772;BME280;9010;32.624;-96.938;2022-08-03T09:40:40;98726.16;;;29.45;81.76
17772;BME280;9010;32.624;-96.938;2022-08-03T09:43:10;98722.38;;;29.46;81.93
17772;BME280;9010;32.624;-96.938;2022-08-03T09:45:39;98727.84;;;29.40;81.30
17772;BME280;9010;32.624;-96.938;2022-08-03T09:48:21;98724.31;;;29.39;81.23
17772;BME280;9010;32.624;-96.938;2022-08-03T09:50:50;98728.28;;;29.37;80.86
17772;BME280;9010;32.624;-96.938;2022-08-03T09:53:19;98727.84;;;29.33;82.04
17772;BME280;9010;32.624;-96.938;2022-08-03T09:55:51;98730.38;;;29.28;82.71
17772;BME280;9010;32.624;-96.938;2022-08-03T09:58:22;98729.13;;;29.24;82.14
17772;BME280;9010;32.624;-96.938;2022-08-03T10:00:57;98736.41;;;29.24;83.01
17772;BME280;9010;32.624;-96.938;2022-08-03T10:03:28;98739.13;;;29.24;81.74
17772;BME280;9010;32.624;-96.938;2022-08-03T10:05:57;98733.69;;;29.17;85.37
17772;BME280;9010;32.624;-96.938;2022-08-03T10:08:25;98734.75;;;29.03;83.63
17772;BME280;9010;32.624;-96.938;2022-08-03T10:10:53;98734.97;;;28.95;86.56
17772;BME280;9010;32.624;-96.938;2022-08-03T10:13:25;98739.97;;;28.85;87.43
17772;BME280;9010;32.624;-96.938;2022-08-03T10:15:54;98735.38;;;28.79;87.01
17772;BME280;9010;32.624;-96.938;2022-08-03T10:18:22;98744.75;;;28.70;88.88
17772;BME280;9010;32.624;-96.938;2022-08-03T10:20:51;98741.19;;;28.63;90.72
17772;BME280;9010;32.624;-96.938;2022-08-03T10:23:20;98742.41;;;28.47;92.85
17772;BME280;9010;32.624;-96.938;2022-08-03T10:25:53;98745.34;;;28.45;90.59
17772;BME280;9010;32.624;-96.938;2022-08-03T10:28:32;98746.56;;;28.36;95.55
17772;BME280;9010;32.624;-96.938;2022-08-03T10:31:02;98746.78;;;28.35;88.19
17772;BME280;9010;32.624;-96.938;2022-08-03T10:33:36;98747.84;;;28.40;87.96
17772;BME280;9010;32.624;-96.938;2022-08-03T10:36:05;98760.94;;;28.43;88.40
17772;BME280;9010;32.624;-96.938;2022-08-03T10:38:37;98756.16;;;28.45;87.45
17772;BME280;9010;32.624;-96.938;2022-08-03T10:41:07;98766.97;;;28.45;88.34
17772;BME280;9010;32.624;-96.938;2022-08-03T10:43:44;98759.69;;;28.39;90.31
17772;BME280;9010;32.624;-96.938;2022-08-03T10:46:17;98760.31;;;28.41;87.93
17772;BME280;9010;32.624;-96.938;2022-08-03T10:48:46;98756.34;;;28.37;92.11
17772;BME280;9010;32.624;-96.938;2022-08-03T10:51:16;98763.59;;;28.30;90.11
17772;BME280;9010;32.624;-96.938;2022-08-03T10:53:44;98755.50;;;28.24;89.99
17772;BME280;9010;32.624;-96.938;2022-08-03T10:56:37;98752.81;;;28.24;90.06
17772;BME280;9010;32.624;-96.938;2022-08-03T10:59:58;98770.25;;;28.21;90.03
17772;BME280;9010;32.624;-96.938;2022-08-03T11:05:44;98765.81;;;28.07;93.40
17772;BME280;9010;32.624;-96.938;2022-08-03T11:08:26;98767.28;;;28.03;94.05
17772;BME280;9010;32.624;-96.938;2022-08-03T11:10:57;98765.81;;;28.07;92.33
17772;BME280;9010;32.624;-96.938;2022-08-03T11:13:27;98773.13;;;28.07;92.56
17772;BME280;9010;32.624;-96.938;2022-08-03T11:16:02;98766.63;;;28.01;92.12
17772;BME280;9010;32.624;-96.938;2022-08-03T11:18:30;98776.78;;;27.99;92.55
17772;BME280;9010;32.624;-96.938;2022-08-03T11:20:59;98775.16;;;27.98;93.20
17772;BME280;9010;32.624;-96.938;2022-08-03T11:23:42;98783.66;;;27.95;93.69
17772;BME280;9010;32.624;-96.938;2022-08-03T11:26:15;98792.16;;;27.92;92.90
17772;BME280;9010;32.624;-96.938;2022-08-03T11:28:44;98790.88;;;27.88;94.86
17772;BME280;9010;32.624;-96.938;2022-08-03T11:34:16;98805.84;;;27.84;95.42
17772;BME280;9010;32.624;-96.938;2022-08-03T11:37:18;98804.81;;;27.85;94.63
17772;BME280;9010;32.624;-96.938;2022-08-03T11:39:53;98816.66;;;27.84;94.50
17772;BME280;9010;32.624;-96.938;2022-08-03T11:42:41;98815.78;;;27.77;95.69
17772;BME280;9010;32.624;-96.938;2022-08-03T11:45:14;98817.66;;;27.76;96.18
17772;BME280;9010;32.624;-96.938;2022-08-03T11:47:45;98816.19;;;27.74;99.20
17772;BME280;9010;32.624;-96.938;2022-08-03T11:50:15;98838.19;;;27.71;99.20
17772;BME280;9010;32.624;-96.938;2022-08-03T11:52:44;98835.25;;;27.66;98.95
17772;BME280;9010;32.624;-96.938;2022-08-03T11:55:14;98833.56;;;27.65;100.00
17772;BME280;9010;32.624;-96.938;2022-08-03T11:57:43;98833.78;;;27.63;99.31
17772;BME280;9010;32.624;-96.938;2022-08-03T12:00:27;98846.91;;;27.73;99.15
17772;BME280;9010;32.624;-96.938;2022-08-03T12:03:06;98849.00;;;27.71;99.42
17772;BME280;9010;32.624;-96.938;2022-08-03T12:05:45;98851.06;;;27.69;100.00
17772;BME280;9010;32.624;-96.938;2022-08-03T12:08:15;98856.03;;;27.65;100.00
17772;BME280;9010;32.624;-96.938;2022-08-03T12:10:50;98863.50;;;27.63;100.00
17772;BME280;9010;32.624;-96.938;2022-08-03T12:13:19;98862.03;;;27.61;100.00
17772;BME280;9010;32.624;-96.938;2022-08-03T12:15:52;98862.66;;;27.63;100.00
17772;BME280;9010;32.624;-96.938;2022-08-03T12:18:22;98862.22;;;27.59;100.00
17772;BME280;9010;32.624;-96.938;2022-08-03T12:20:54;98871.41;;;27.65;100.00
17772;BME280;9010;32.624;-96.938;2022-08-03T12:23:30;98859.34;;;27.61;100.00
17772;BME280;9010;32.624;-96.938;2022-08-03T12:26:02;98870.16;;;27.61;100.00
17772;BME280;9010;32.624;-96.938;2022-08-03T12:28:30;98863.28;;;27.65;100.00
17772;BME280;9010;32.624;-96.938;2022-08-03T12:31:02;98873.72;;;27.68;100.00
17772;BME280;9010;32.624;-96.938;2022-08-03T12:33:34;98873.72;;;27.68;100.00
17772;BME280;9010;32.624;-96.938;2022-08-03T12:36:21;98878.09;;;27.69;100.00
17772;BME280;9010;32.624;-96.938;2022-08-03T12:38:54;98855.63;;;27.68;100.00
17772;BME280;9010;32.624;-96.938;2022-08-03T12:41:28;98871.53;;;27.84;100.00
17772;BME280;9010;32.624;-96.938;2022-08-03T12:43:58;98877.75;;;27.78;100.00
17772;BME280;9010;32.624;-96.938;2022-08-03T12:46:33;98866.50;;;27.75;100.00
17772;BME280;9010;32.624;-96.938;2022-08-03T12:49:06;98879.41;;;27.79;100.00
17772;BME280;9010;32.624;-96.938;2022-08-03T12:51:37;98867.97;;;27.77;100.00
17772;BME280;9010;32.624;-96.938;2022-08-03T12:54:23;98876.13;;;27.84;100.00
17772;BME280;9010;32.624;-96.938;2022-08-03T12:56:57;98876.91;;;27.78;100.00
17772;BME280;9010;32.624;-96.938;2022-08-03T12:59:26;98879.84;;;27.83;100.00
17772;BME280;9010;32.624;-96.938;2022-08-03T13:01:54;98885.69;;;27.86;100.00
17772;BME280;9010;32.624;-96.938;2022-08-03T13:04:27;98888.41;;;27.93;100.00
17772;BME280;9010;32.624;-96.938;2022-08-03T13:06:58;98901.13;;;27.92;100.00
17772;BME280;9010;32.624;-96.938;2022-08-03T13:09:27;98890.31;;;27.99;100.00
17772;BME280;9010;32.624;-96.938;2022-08-03T13:12:07;98888.66;;;27.98;100.00
17772;BME280;9010;32.624;-96.938;2022-08-03T13:14:36;98896.38;;;28.01;100.00